Terminal Aerodrome Forecast
Issued by NWS Amarillo, TX

Home | Current Version | Previous Version | Text Only | Print | Product List | Glossary On
Versions: 1 2 3 4 5 6 7 8 9 10 11 12 13 14 15 16 17 18
000
FTUS44 KAMA 250520
TAFDHT
TAF
KDHT 250520Z 2506/2606 16011KT P6SM OVC010
      TEMPO 2508/2512 -SHRA OVC025
     FM251300 12010KT P6SM -SHRA OVC015
     FM260100 03013KT 5SM -TSRA BR OVC015CB=

USA.gov is the U.S. government's official web portal to all federal, state and local government web resources and services.